Warrior Run, Pennsylvania
Current Conditions -  °F | °C
As of 9:12 AM on Thursday 27 Nov 2014 (Local Time) from KAVP Reporting Station
Moderate Snow Moderate Snow  
Wind Chill: 23°   Ceiling: 800
Heat Index: 30°   Visibility: 0.5mi
Dew Point: 27°   Wind: 7mph
Humidity: 88%   Direction: 270°W
Pressure: 29.99"   Gusts: NA
Location:  41.1921°N, 75.9213°W
Report Text: KAVP 271412Z AUTO 27006KT 1/2SM R04/4500VP6000FT SN FZFG BKN008 OVC012 M01/M03 A2999 RMK AO2 P0000 T10111028
Loading
Personal Weather Stations






























Interactive Weather Map New forecast layout! Learn more

10-Day Weather Forecast

Advertisements
Track Severe Weather on mobile